Airfield :
LOGIN :

Register | Disclaimer

   EN    FR    IT 

 










Legend :    VFR   Marginal VFR   IFR   Intensive IFR   Very Intensive IFR
Visi :
Ceiling :
>= 8 km
>= 3000ft
5 to 8 km
1000 to 3000 ft
1500m to 5 km
500 to 1000 ft
800 to 1500m
200 to 500 ft
< 800m
< 200 ft
Symbols :   Thunderstorms  Fog  Heavy snow  Heavy precipitations  Wind > 20 kt
SIGMETs :     Misc.  Thunderstorms  Icing  Turbulence  Mountain Waves  Volcanic Ashes







- Airport Elevation : 461 ft
- IATA code : WIE


ETOU - Wiesbaden Army

CURRENT METAR :
  • 212156Z AUTO 00000KT 9999 CLR 19/09 A2987 RMK AO2 SLP112 T01890091 $

EXPIRED METARs :
  • 212056Z AUTO 00000KT 9999 FEW070 SCT200 19/10 A2987 RMK AO2 SLP113 T01930100 53000 $
  • 211956Z AUTO 04004KT 9999 FEW150 20/11 A2988 RMK AO2 SLP116 T02010105 $

TAF TAF ETOU
Valid from the 21 at 19:00 until the 23 at 01:00 UTC


211858Z 2119/2301 VRB06KT 9999 SCT065 QNH2987INS
BECMG 2201/2202 VRB06KT 8000 BR BKN045 QNH2988INS
BECMG 2206/2207 VRB06KT 9999 NSW BKN050 QNH2990INS
TEMPO 2211/2218 8000 TSRA BKN030CB
BECMG 2217/2218 VRB06KT 9000 -SHRA BKN040 QNH2992INS TX23/2213Z TN08/2204Z
No reported NOTAMs for that airfield.



MET'MAP, your aeronautical weather chart ! - Copyright ORBIFLY December 2007 - Disclaimer

ORBIFLY MET'MAP TEAM :

Programming & Development : Alexandra Zaïnal
Concept & Development : Baudouin d'Aumeries
Co-Development & Prog : Marc-Olivier Méhu
Technical & hardware support : Manuel Goepfert

Contact : metmap@orbifly.com




SOURCES & CREDITS :

   NOAA